Time;durP1;ratioP1;P1;durP2;ratioP2;P2;SDS_P1;SDS_P2;PMS_P1;PMS_P2;Temp;Humidity;BMP_temperature;BMP_pressure;BME280_temperature;BME280_humidity;BME280_pressure;Samples;Min_cycle;Max_cycle;Signal;HPM_P1;HPM_P2
2023/07/12 00:01:18;;;;;;;16.10;15.30;;;22.80;38.00;;;;;;4907445;29;20561;-83
2023/07/12 00:03:48;;;;;;;15.10;14.60;;;22.80;1.00;;;;;;4907392;29;20462;-83
2023/07/12 00:06:20;;;;;;;14.53;14.03;;;22.70;99.90;;;;;;4908428;29;20469;-83
2023/07/12 00:08:48;;;;;;;15.07;14.40;;;22.70;99.90;;;;;;4908881;29;20470;-84
2023/07/12 00:11:19;;;;;;;15.00;14.50;;;22.60;99.90;;;;;;4909689;29;20477;-84
2023/07/12 00:13:48;;;;;;;15.17;14.60;;;22.60;99.90;;;;;;4919719;29;20545;-85
2023/07/12 00:16:23;;;;;;;15.80;15.20;;;22.70;63.90;;;;;;4907579;29;20481;-86
2023/07/12 00:18:52;;;;;;;14.60;14.10;;;22.60;1.00;;;;;;4910382;29;20606;-85
2023/07/12 00:21:25;;;;;;;15.00;14.50;;;22.60;99.90;;;;;;4909544;29;20517;-84
2023/07/12 00:23:54;;;;;;;15.33;14.73;;;22.50;99.90;;;;;;4909351;29;21083;-83
2023/07/12 00:26:26;;;;;;;15.23;14.63;;;22.60;99.90;;;;;;4922321;29;20549;-86
2023/07/12 00:28:54;;;;;;;15.53;14.93;;;22.60;99.90;;;;;;4906575;29;20462;-84
2023/07/12 00:31:23;;;;;;;15.03;14.33;;;22.60;99.90;;;;;;4907017;29;20487;-85
2023/07/12 00:33:52;;;;;;;15.30;14.60;;;22.60;1.00;;;;;;4910178;29;20465;-84
2023/07/12 00:36:24;;;;;;;15.00;14.50;;;22.70;86.00;;;;;;4909153;29;20462;-82
2023/07/12 00:38:53;;;;;;;14.50;14.10;;;22.70;1.00;;;;;;4909290;29;20979;-82
2023/07/12 00:41:30;;;;;;;13.93;13.43;;;22.60;99.90;;;;;;4903105;29;20572;-85
2023/07/12 00:44:04;;;;;;;15.23;14.53;;;22.70;99.90;;;;;;4906917;29;20454;-84
2023/07/12 00:46:35;;;;;;;14.80;14.23;;;22.70;80.60;;;;;;4901781;29;20462;-82
2023/07/12 00:49:04;;;;;;;15.27;14.53;;;22.70;1.00;;;;;;4906772;29;20955;-84
2023/07/12 00:51:44;;;;;;;15.53;14.70;;;22.60;1.00;;;;;;4910462;29;20485;-83
2023/07/12 00:54:14;;;;;;;14.20;13.73;;;22.60;1.00;;;;;;4912652;29;20698;-82
2023/07/12 00:56:43;;;;;;;14.10;13.60;;;22.60;99.90;;;;;;4916550;29;20959;-83
2023/07/12 00:59:16;;;;;;;14.93;14.43;;;22.60;65.40;;;;;;4911675;29;20569;-82
2023/07/12 01:01:45;;;;;;;14.40;13.90;;;22.60;90.50;;;;;;4911999;29;20476;-83
2023/07/12 01:04:17;;;;;;;14.10;13.60;;;22.60;4.60;;;;;;4913227;29;20462;-84
2023/07/12 01:06:49;;;;;;;14.33;13.73;;;22.50;99.90;;;;;;4912652;29;20454;-83
2023/07/12 01:09:19;;;;;;;14.67;14.17;;;22.50;99.90;;;;;;4922053;29;20484;-83
2023/07/12 01:11:47;;;;;;;14.13;13.60;;;22.50;99.90;;;;;;4912875;29;20494;-84
2023/07/12 01:14:18;;;;;;;14.63;13.93;;;22.50;3.60;;;;;;4912853;29;20454;-83
2023/07/12 01:16:52;;;;;;;14.23;13.63;;;22.50;99.90;;;;;;4913969;29;20551;-85
2023/07/12 01:19:20;;;;;;;14.60;14.10;;;22.60;99.90;;;;;;4912146;29;20468;-85
2023/07/12 01:21:54;;;;;;;14.47;13.77;;;22.50;99.90;;;;;;4909758;29;20477;-84
2023/07/12 01:24:24;;;;;;;14.53;14.03;;;22.50;99.90;;;;;;4907304;29;21089;-83
2023/07/12 01:26:56;;;;;;;14.10;13.60;;;22.50;99.90;;;;;;4912400;29;20521;-84
2023/07/12 01:29:29;;;;;;;14.73;14.30;;;22.60;99.90;;;;;;4911667;29;20551;-84
2023/07/12 01:31:57;;;;;;;15.07;14.37;;;22.50;99.90;;;;;;4911221;29;20915;-83
2023/07/12 01:34:26;;;;;;;13.90;13.50;;;22.50;99.90;;;;;;4911456;29;20485;-83
2023/07/12 01:36:57;;;;;;;15.20;14.40;;;22.50;99.90;;;;;;4913585;29;20462;-83
2023/07/12 01:39:25;;;;;;;15.10;14.60;;;22.50;1.00;;;;;;4913738;29;20529;-84
2023/07/12 01:41:54;;;;;;;14.47;14.00;;;22.50;99.90;;;;;;4911349;29;20556;-85
2023/07/12 01:44:22;;;;;;;14.90;14.40;;;22.50;99.90;;;;;;4911193;29;20478;-83
2023/07/12 01:46:50;;;;;;;15.07;14.47;;;22.50;25.20;;;;;;4910378;29;20474;-83
2023/07/12 01:49:18;;;;;;;15.90;15.30;;;22.50;1.00;;;;;;4915824;29;20589;-86
2023/07/12 01:51:48;;;;;;;15.27;14.47;;;22.50;1.00;;;;;;4913716;29;20474;-83
2023/07/12 01:54:17;;;;;;;14.43;13.93;;;22.50;1.00;;;;;;4911215;29;20452;-83
2023/07/12 01:56:45;;;;;;;15.30;14.67;;;22.40;1.00;;;;;;4904833;29;20453;-84
2023/07/12 01:59:14;;;;;;;14.87;14.37;;;22.30;1.00;;;;;;4904960;29;20891;-83
2023/07/12 02:01:42;;;;;;;16.33;15.63;;;22.30;9.20;;;;;;4904049;29;21290;-84
2023/07/12 02:04:10;;;;;;;15.07;14.47;;;22.30;1.00;;;;;;4905014;29;20489;-82
2023/07/12 02:06:38;;;;;;;16.30;15.40;;;22.40;1.00;;;;;;4905380;29;20569;-85
2023/07/12 02:09:07;;;;;;;16.13;15.30;;;22.40;1.00;;;;;;4907400;29;20480;-85
2023/07/12 02:11:36;;;;;;;15.07;14.30;;;22.40;99.90;;;;;;4907320;29;20482;-84
2023/07/12 02:14:04;;;;;;;15.20;14.60;;;22.40;99.90;;;;;;4908614;29;20462;-84
2023/07/12 02:16:33;;;;;;;15.00;14.40;;;22.40;1.00;;;;;;4906733;29;20468;-83
2023/07/12 02:19:01;;;;;;;14.90;14.40;;;22.30;99.90;;;;;;4906303;29;20468;-83
2023/07/12 02:21:30;;;;;;;14.63;14.03;;;22.20;1.00;;;;;;4907578;29;20505;-82
2023/07/12 02:24:00;;;;;;;15.87;15.17;;;22.20;1.00;;;;;;4905151;29;20482;-85
2023/07/12 02:26:28;;;;;;;14.77;14.17;;;22.30;99.90;;;;;;4904727;29;20459;-85
2023/07/12 02:28:58;;;;;;;14.90;14.23;;;22.30;1.00;;;;;;4905625;29;20462;-82
2023/07/12 02:31:26;;;;;;;15.37;14.77;;;22.30;1.00;;;;;;4903687;29;20511;-81
2023/07/12 02:33:54;;;;;;;14.37;13.90;;;22.30;1.00;;;;;;4905554;29;23000;-83
2023/07/12 02:36:23;;;;;;;14.70;14.20;;;22.30;99.90;;;;;;4905438;29;20914;-83
2023/07/12 02:38:51;;;;;;;15.10;14.60;;;22.30;19.70;;;;;;4907994;29;20517;-84
2023/07/12 02:41:20;;;;;;;14.97;14.33;;;22.30;99.90;;;;;;4904719;29;21114;-84
2023/07/12 02:43:49;;;;;;;16.03;15.40;;;22.30;73.40;;;;;;4906329;29;20492;-82
2023/07/12 02:46:18;;;;;;;14.90;14.30;;;22.30;99.90;;;;;;4909926;29;20468;-84
2023/07/12 02:48:47;;;;;;;15.30;14.80;;;22.30;7.70;;;;;;4913142;29;20538;-84
2023/07/12 02:51:15;;;;;;;15.43;14.80;;;22.20;1.00;;;;;;4911978;29;20584;-84
2023/07/12 02:53:43;;;;;;;15.30;14.70;;;22.30;1.00;;;;;;4912754;29;20484;-85
2023/07/12 02:56:11;;;;;;;15.23;14.57;;;22.30;1.00;;;;;;4912335;29;20873;-84
2023/07/12 02:58:39;;;;;;;15.40;14.60;;;22.30;1.00;;;;;;4914047;29;20473;-82
2023/07/12 03:01:07;;;;;;;16.13;15.23;;;22.30;1.00;;;;;;4913851;29;20485;-83
2023/07/12 03:03:37;;;;;;;15.60;14.77;;;22.30;1.00;;;;;;4913655;29;25073;-82
2023/07/12 03:06:07;;;;;;;15.83;15.00;;;22.30;1.00;;;;;;4913020;29;20476;-81
2023/07/12 03:08:35;;;;;;;15.33;14.70;;;22.30;1.00;;;;;;4908453;29;20461;-81
2023/07/12 03:11:04;;;;;;;15.57;14.90;;;22.30;1.00;;;;;;4908247;29;20477;-83
2023/07/12 03:13:33;;;;;;;16.10;15.33;;;22.30;1.00;;;;;;4911158;29;20474;-82
2023/07/12 03:16:04;;;;;;;16.10;15.30;;;22.30;1.00;;;;;;4911115;29;20458;-82
2023/07/12 03:18:32;;;;;;;16.77;15.97;;;22.20;99.90;;;;;;4913582;29;20552;-84
2023/07/12 03:21:03;;;;;;;15.60;14.80;;;22.20;99.90;;;;;;4921973;29;20497;-83
2023/07/12 03:23:32;;;;;;;15.60;15.00;;;22.30;1.00;;;;;;4922168;29;20522;-83
2023/07/12 03:26:00;;;;;;;16.60;15.80;;;22.20;1.00;;;;;;4908765;29;20449;-83
2023/07/12 03:28:29;;;;;;;16.07;15.27;;;22.30;1.00;;;;;;4911613;29;21289;-83
2023/07/12 03:30:58;;;;;;;16.13;15.53;;;22.30;1.00;;;;;;4908859;29;20497;-82
2023/07/12 03:33:27;;;;;;;16.10;15.30;;;22.30;1.00;;;;;;4901279;29;20457;-84
2023/07/12 03:35:55;;;;;;;16.43;15.63;;;22.20;1.00;;;;;;4906995;29;20825;-82
2023/07/12 03:38:25;;;;;;;15.60;14.90;;;22.20;1.00;;;;;;4911768;29;20540;-83
2023/07/12 03:40:55;;;;;;;15.93;15.33;;;22.20;1.00;;;;;;4907101;29;20831;-84
2023/07/12 03:43:23;;;;;;;15.53;14.83;;;22.30;1.00;;;;;;4906751;29;20461;-81
2023/07/12 03:45:52;;;;;;;16.33;15.67;;;22.30;99.90;;;;;;4910138;29;20465;-83
2023/07/12 03:48:21;;;;;;;15.73;14.93;;;22.30;99.90;;;;;;4909194;29;20831;-84
2023/07/12 03:50:50;;;;;;;16.07;15.40;;;22.30;99.90;;;;;;4908231;29;21121;-85
2023/07/12 03:53:19;;;;;;;15.80;15.00;;;22.30;99.90;;;;;;4910354;29;20458;-82
2023/07/12 03:55:49;;;;;;;16.57;15.63;;;22.30;99.90;;;;;;4912726;29;20466;-81
2023/07/12 03:58:20;;;;;;;15.63;14.60;;;22.30;60.40;;;;;;4908129;29;20569;-84
2023/07/12 04:00:50;;;;;;;16.20;15.20;;;22.30;99.90;;;;;;4904713;29;20541;-84
2023/07/12 04:03:19;;;;;;;16.00;15.40;;;22.30;99.90;;;;;;4911281;29;20489;-84
2023/07/12 04:05:50;;;;;;;16.47;15.47;;;22.30;99.90;;;;;;4912211;29;20604;-82
2023/07/12 04:08:20;;;;;;;16.40;15.37;;;22.30;99.90;;;;;;4914068;29;20493;-81
2023/07/12 04:10:53;;;;;;;16.37;15.43;;;22.40;10.90;;;;;;4911422;29;20853;-82
2023/07/12 04:13:23;;;;;;;16.10;15.47;;;22.40;29.50;;;;;;4926121;29;20468;-83
2023/07/12 04:15:54;;;;;;;16.37;15.57;;;22.40;1.00;;;;;;4910267;29;20456;-82
2023/07/12 04:18:23;;;;;;;15.90;15.23;;;22.40;1.00;;;;;;4913565;29;20460;-82
2023/07/12 04:20:53;;;;;;;16.43;15.63;;;22.50;1.00;;;;;;4910208;29;20993;-83
2023/07/12 04:23:21;;;;;;;16.60;15.90;;;22.50;1.00;;;;;;4908572;29;21028;-83
2023/07/12 04:25:57;;;;;;;18.07;17.00;;;22.50;1.00;;;;;;4910071;29;21060;-83
2023/07/12 04:28:26;;;;;;;16.67;15.70;;;22.50;1.00;;;;;;4912703;29;20509;-83
2023/07/12 04:30:55;;;;;;;16.73;16.00;;;22.50;1.00;;;;;;4903105;29;20492;-82
2023/07/12 04:33:24;;;;;;;17.23;15.90;;;22.50;1.00;;;;;;4907260;29;20458;-72
2023/07/12 04:35:52;;;;;;;16.73;15.93;;;22.50;1.00;;;;;;4906063;29;20454;-72
2023/07/12 04:38:20;;;;;;;16.33;15.63;;;22.60;99.90;;;;;;4908175;29;20461;-77
2023/07/12 04:40:53;;;;;;;16.47;15.50;;;22.60;10.70;;;;;;4905262;29;20454;-75
2023/07/12 04:43:22;;;;;;;17.60;16.20;;;22.60;1.00;;;;;;4906394;29;20956;-72
2023/07/12 04:45:52;;;;;;;16.13;15.53;;;22.70;1.00;;;;;;4902408;29;21008;-74
2023/07/12 04:48:20;;;;;;;16.50;15.70;;;22.70;1.00;;;;;;4906131;29;20458;-76
2023/07/12 04:50:51;;;;;;;17.00;16.20;;;22.80;1.00;;;;;;4896973;29;20457;-77
2023/07/12 04:53:20;;;;;;;15.90;15.10;;;22.80;1.00;;;;;;4903913;29;20461;-73
2023/07/12 04:55:50;;;;;;;16.33;15.43;;;22.70;1.00;;;;;;4903845;29;20465;-74
2023/07/12 04:58:19;;;;;;;16.90;16.13;;;22.70;1.00;;;;;;4908659;29;20462;-86
2023/07/12 05:00:48;;;;;;;16.83;16.00;;;22.70;1.00;;;;;;4909140;29;20468;-86
2023/07/12 05:03:23;;;;;;;17.07;16.20;;;22.60;1.00;;;;;;4896571;29;20597;-86
2023/07/12 05:05:52;;;;;;;16.73;16.00;;;22.50;99.90;;;;;;4898208;29;20548;-87
2023/07/12 05:08:30;;;;;;;17.77;16.80;;;22.50;99.90;;;;;;4908678;29;20561;-86
2023/07/12 05:11:12;;;;;;;16.80;16.10;;;22.60;76.10;;;;;;4908579;29;20484;-85
2023/07/12 05:14:47;;;;;;;17.00;16.30;;;22.60;21.80;;;;;;4911519;29;20450;-86
2023/07/12 05:17:16;;;;;;;18.13;17.27;;;22.60;99.90;;;;;;4912189;29;20905;-86
2023/07/12 05:23:39;;;;;;;19.00;17.60;;;22.60;99.90;;;;;;4864261;29;20481;-85
2023/07/12 05:26:08;;;;;;;17.80;16.97;;;22.70;99.90;;;;;;4898943;29;20492;-85
2023/07/12 05:28:36;;;;;;;18.07;17.07;;;22.70;99.90;;;;;;4906056;29;20480;-85
2023/07/12 05:31:08;;;;;;;18.27;17.23;;;22.70;1.00;;;;;;4909383;29;20478;-86
2023/07/12 05:33:36;;;;;;;17.77;16.97;;;22.70;99.90;;;;;;4908942;29;20492;-85
2023/07/12 05:36:06;;;;;;;17.80;17.00;;;22.70;99.90;;;;;;4907901;29;20461;-85
2023/07/12 05:38:36;;;;;;;18.37;17.57;;;22.80;99.90;;;;;;4909113;29;20536;-85
2023/07/12 05:41:05;;;;;;;18.13;17.20;;;22.80;99.90;;;;;;4907304;29;20592;-86
2023/07/12 05:43:34;;;;;;;18.17;17.17;;;22.70;1.00;;;;;;4925223;29;20468;-86
2023/07/12 05:46:05;;;;;;;18.60;17.40;;;22.70;1.00;;;;;;4912593;29;20473;-86
2023/07/12 05:48:38;;;;;;;19.30;18.10;;;22.70;1.00;;;;;;4910947;29;20459;-86
2023/07/12 05:51:07;;;;;;;18.80;18.00;;;22.80;1.00;;;;;;4913448;29;20560;-85
2023/07/12 05:53:38;;;;;;;19.63;18.60;;;22.80;1.00;;;;;;4910344;29;20493;-84
2023/07/12 05:56:06;;;;;;;19.70;18.60;;;22.80;1.00;;;;;;4908749;29;20446;-85
2023/07/12 05:58:35;;;;;;;19.50;18.40;;;22.90;1.00;;;;;;4907656;29;20544;-85
2023/07/12 06:01:04;;;;;;;19.10;18.20;;;22.90;1.00;;;;;;4909350;29;20496;-85
2023/07/12 06:03:34;;;;;;;18.70;17.90;;;22.90;99.90;;;;;;4910746;29;20438;-85
2023/07/12 06:06:12;;;;;;;19.67;18.57;;;23.00;1.00;;;;;;4908930;29;20562;-85
2023/07/12 06:08:41;;;;;;;19.00;18.00;;;23.00;1.00;;;;;;4903923;29;20481;-84
2023/07/12 06:11:10;;;;;;;20.13;18.90;;;23.00;1.00;;;;;;4902204;29;20556;-84
2023/07/12 06:13:39;;;;;;;19.00;18.10;;;23.10;1.00;;;;;;4907635;29;20796;-85
2023/07/12 06:16:07;;;;;;;19.10;18.23;;;23.10;1.00;;;;;;4905081;29;20447;-86
2023/07/12 06:18:36;;;;;;;19.20;18.20;;;23.00;1.00;;;;;;4907469;29;20457;-84
2023/07/12 06:21:08;;;;;;;19.57;18.57;;;23.10;1.00;;;;;;4904651;29;20494;-84
2023/07/12 06:23:36;;;;;;;19.80;18.40;;;23.20;1.00;;;;;;4904849;29;20577;-86
2023/07/12 06:26:06;;;;;;;20.60;19.50;;;23.10;1.00;;;;;;4901083;29;20557;-84
2023/07/12 06:28:34;;;;;;;19.47;18.37;;;23.10;1.00;;;;;;4916267;29;20835;-84
2023/07/12 06:31:03;;;;;;;19.80;18.80;;;23.10;99.90;;;;;;4905716;29;20560;-84
2023/07/12 06:33:31;;;;;;;19.97;19.00;;;23.20;51.90;;;;;;4905838;29;20450;-83
2023/07/12 06:36:00;;;;;;;19.60;18.60;;;23.30;1.00;;;;;;4904934;29;20443;-83
2023/07/12 06:38:28;;;;;;;19.57;18.50;;;23.40;1.00;;;;;;4904588;29;21086;-85
2023/07/12 06:40:57;;;;;;;19.83;18.70;;;23.40;1.00;;;;;;4904647;29;20967;-84
2023/07/12 06:43:27;;;;;;;19.53;18.30;;;23.50;1.00;;;;;;4903264;29;20517;-84
2023/07/12 06:45:56;;;;;;;19.27;18.17;;;23.50;1.00;;;;;;4905513;29;21050;-84
2023/07/12 06:48:24;;;;;;;19.27;18.03;;;23.60;1.00;;;;;;4903998;29;20528;-85
2023/07/12 06:50:54;;;;;;;20.50;19.10;;;23.70;99.90;;;;;;4905655;29;20466;-83
2023/07/12 06:53:22;;;;;;;19.87;18.67;;;23.60;99.90;;;;;;4906391;29;20462;-86
2023/07/12 06:55:51;;;;;;;20.13;19.10;;;23.70;1.00;;;;;;4903995;29;20530;-85
2023/07/12 06:58:19;;;;;;;19.40;18.43;;;23.80;99.90;;;;;;4906217;29;20466;-85
2023/07/12 07:00:49;;;;;;;20.50;19.37;;;23.90;99.90;;;;;;4907371;29;20472;-85
2023/07/12 07:03:18;;;;;;;19.73;18.63;;;24.00;1.00;;;;;;4907433;29;20549;-85
2023/07/12 07:05:48;;;;;;;19.80;18.77;;;24.00;1.00;;;;;;4907587;29;21438;-85
2023/07/12 07:08:18;;;;;;;19.43;18.43;;;24.10;1.00;;;;;;4905182;29;20549;-84
2023/07/12 07:10:50;;;;;;;19.50;18.53;;;24.00;1.00;;;;;;4900790;29;20461;-86
2023/07/12 07:13:18;;;;;;;20.30;19.00;;;24.10;1.00;;;;;;4904902;29;20466;-86
2023/07/12 07:15:48;;;;;;;18.87;18.00;;;24.20;1.00;;;;;;4906828;29;20461;-86
2023/07/12 07:18:17;;;;;;;18.93;18.13;;;24.20;99.90;;;;;;4906788;29;20458;-86
2023/07/12 07:20:45;;;;;;;18.97;18.17;;;24.10;99.90;;;;;;4903981;29;20549;-85
2023/07/12 07:23:14;;;;;;;19.37;18.57;;;24.20;99.90;;;;;;4904305;29;20565;-86
2023/07/12 07:25:43;;;;;;;19.03;18.10;;;24.30;99.90;;;;;;4906120;29;20492;-86
2023/07/12 07:28:11;;;;;;;19.57;18.73;;;24.30;99.90;;;;;;4908182;29;20497;-85
2023/07/12 07:30:39;;;;;;;20.80;19.70;;;24.40;1.00;;;;;;4906291;29;20537;-86
2023/07/12 07:33:09;;;;;;;20.50;19.50;;;24.30;1.00;;;;;;4902586;29;20542;-87
2023/07/12 07:35:38;;;;;;;20.63;19.53;;;24.30;1.00;;;;;;4902432;29;20917;-87
2023/07/12 07:38:06;;;;;;;20.50;19.37;;;24.30;1.00;;;;;;4910199;29;20578;-87
2023/07/12 07:40:34;;;;;;;20.80;19.60;;;24.30;1.00;;;;;;4905914;29;20460;-87
2023/07/12 07:43:02;;;;;;;21.63;20.30;;;24.20;1.00;;;;;;4908650;29;20564;-84
2023/07/12 07:45:33;;;;;;;20.07;18.97;;;24.30;1.00;;;;;;4911034;29;20907;-86
2023/07/12 07:48:01;;;;;;;20.80;19.60;;;24.30;1.00;;;;;;4909905;29;20458;-86
2023/07/12 07:50:31;;;;;;;20.70;19.70;;;24.30;1.00;;;;;;4910650;29;20474;-87
2023/07/12 07:52:59;;;;;;;20.97;19.70;;;24.30;1.00;;;;;;4914095;29;20564;-88
2023/07/12 07:55:28;;;;;;;19.97;18.63;;;24.40;99.90;;;;;;4913107;29;20462;-88
2023/07/12 07:57:56;;;;;;;20.07;19.17;;;24.40;99.90;;;;;;4913351;29;20468;-88
2023/07/12 08:00:24;;;;;;;19.60;18.60;;;24.40;99.90;;;;;;4911316;29;20516;-86
2023/07/12 08:03:07;;;;;;;20.17;19.10;;;24.50;67.10;;;;;;4915537;29;20501;-84
2023/07/12 08:05:37;;;;;;;19.50;18.30;;;24.50;1.00;;;;;;4910418;29;20497;-85
2023/07/12 08:08:05;;;;;;;19.60;18.70;;;24.50;1.00;;;;;;4909462;29;20470;-86
2023/07/12 08:10:33;;;;;;;19.43;18.50;;;24.50;1.00;;;;;;4913697;29;20465;-86
2023/07/12 08:13:02;;;;;;;19.00;18.00;;;24.60;1.00;;;;;;4917038;29;20541;-86
2023/07/12 08:15:33;;;;;;;18.90;18.00;;;24.70;1.00;;;;;;4923971;29;20493;-85
2023/07/12 08:18:03;;;;;;;19.30;18.37;;;24.70;1.00;;;;;;4917393;29;20812;-86
2023/07/12 08:20:33;;;;;;;19.47;18.57;;;24.80;1.00;;;;;;4917494;29;20470;-85
2023/07/12 08:23:03;;;;;;;20.07;18.97;;;24.80;1.00;;;;;;4923075;29;20481;-85
2023/07/12 08:25:31;;;;;;;18.80;18.00;;;24.70;1.00;;;;;;4923882;29;20458;-86
2023/07/12 08:27:59;;;;;;;18.80;18.00;;;24.80;1.00;;;;;;4920576;29;20549;-86
2023/07/12 08:30:27;;;;;;;18.00;17.30;;;24.90;1.00;;;;;;4920422;29;20458;-86
2023/07/12 08:32:55;;;;;;;17.80;16.90;;;24.90;1.00;;;;;;4918747;29;20731;-85
2023/07/12 08:35:24;;;;;;;19.03;17.90;;;25.00;1.00;;;;;;4920946;29;20464;-87
2023/07/12 08:38:13;;;;;;;17.57;16.77;;;25.00;99.90;;;;;;4921860;29;20561;-87
2023/07/12 08:40:45;;;;;;;17.67;16.93;;;25.00;99.90;;;;;;4919242;29;20456;-86
2023/07/12 08:43:20;;;;;;;17.63;16.93;;;25.10;99.90;;;;;;4922125;29;20453;-87
2023/07/12 08:45:51;;;;;;;17.27;16.50;;;25.10;99.90;;;;;;4919776;29;20485;-87
2023/07/12 08:48:22;;;;;;;17.90;17.00;;;25.20;99.90;;;;;;4920570;29;20486;-87
2023/07/12 08:50:51;;;;;;;17.90;17.00;;;25.30;99.90;;;;;;4922694;29;20450;-88
2023/07/12 08:53:24;;;;;;;18.13;17.33;;;25.40;99.90;;;;;;4938020;29;20514;-85
2023/07/12 08:55:55;;;;;;;17.70;16.90;;;25.30;99.90;;;;;;4910166;29;20462;-89
2023/07/12 08:58:27;;;;;;;18.13;16.80;;;25.40;99.90;;;;;;4914120;29;20462;-88
2023/07/12 09:01:01;;;;;;;18.13;17.43;;;25.40;99.90;;;;;;4911954;29;20847;-90
2023/07/12 09:03:29;;;;;;;18.37;17.47;;;25.40;99.90;;;;;;4926433;29;20466;-91
2023/07/12 09:05:58;;;;;;;18.10;17.30;;;25.50;99.90;;;;;;4911135;29;20470;-88
2023/07/12 09:08:34;;;;;;;17.87;17.17;;;25.50;99.90;;;;;;4901921;29;20573;-85
2023/07/12 09:11:02;;;;;;;18.60;17.80;;;25.60;99.90;;;;;;4902837;29;20469;-86
2023/07/12 09:13:34;;;;;;;18.00;17.30;;;25.60;99.90;;;;;;4904309;29;20466;-86
2023/07/12 09:16:04;;;;;;;18.87;17.87;;;25.60;99.90;;;;;;4906698;29;20540;-86
2023/07/12 09:18:36;;;;;;;17.23;16.53;;;25.70;99.90;;;;;;4903083;29;20461;-85
2023/07/12 09:21:13;;;;;;;17.60;16.90;;;25.70;99.90;;;;;;4909914;29;20469;-86
2023/07/12 09:23:45;;;;;;;17.40;16.83;;;25.80;99.90;;;;;;4908630;29;20468;-87
2023/07/12 09:26:21;;;;;;;17.77;16.97;;;25.70;99.90;;;;;;4908612;29;20553;-87
2023/07/12 09:28:50;;;;;;;17.33;16.63;;;25.70;99.90;;;;;;4908237;29;20585;-85
2023/07/12 09:55:51;;;;;;;17.53;16.70;;;25.90;99.90;;;;;;4931022;29;20492;-86
2023/07/12 09:58:53;;;;;;;17.70;16.90;;;26.10;99.90;;;;;;4933874;29;20465;-86
2023/07/12 10:02:26;;;;;;;17.60;16.90;;;26.10;99.90;;;;;;4933889;29;20496;-85
2023/07/12 10:05:33;;;;;;;18.00;17.07;;;26.20;99.90;;;;;;4933445;29;20462;-87
2023/07/12 10:12:46;;;;;;;18.30;17.60;;;26.20;99.90;;;;;;4933777;29;20473;-87
2023/07/12 10:34:15;;;;;;;18.20;17.30;;;26.50;99.90;;;;;;4882429;29;20470;-86
2023/07/12 10:36:44;;;;;;;17.80;16.97;;;26.50;99.90;;;;;;4892001;29;20463;-87
2023/07/12 10:39:25;;;;;;;18.00;17.27;;;26.60;99.90;;;;;;4891762;29;20474;-87
2023/07/12 10:42:12;;;;;;;17.87;16.73;;;26.60;99.90;;;;;;4895549;29;20541;-87
2023/07/12 10:45:19;;;;;;;18.37;17.40;;;26.70;99.90;;;;;;4895951;29;20522;-87
2023/07/12 10:51:33;;;;;;;17.10;16.50;;;26.80;99.90;;;;;;4859946;29;21044;-87
2023/07/12 10:58:46;;;;;;;17.77;17.00;;;27.00;99.90;;;;;;4905597;29;20534;-86
2023/07/12 11:05:18;;;;;;;16.40;15.53;;;27.10;99.90;;;;;;4928469;29;20464;-88
2023/07/12 11:07:56;;;;;;;16.50;15.70;;;27.10;99.90;;;;;;4938716;29;20508;-86
2023/07/12 11:10:26;;;;;;;16.97;16.27;;;27.10;99.90;;;;;;4938135;29;20516;-89
2023/07/12 11:13:17;;;;;;;17.63;16.93;;;27.20;99.90;;;;;;4934755;29;20600;-85
2023/07/12 11:16:05;;;;;;;18.47;17.50;;;27.20;99.90;;;;;;4938695;29;20461;-86
2023/07/12 11:18:56;;;;;;;19.20;18.27;;;27.30;99.90;;;;;;4935348;29;20457;-87
2023/07/12 11:21:40;;;;;;;18.13;17.33;;;27.30;99.90;;;;;;4929802;29;20566;-86
2023/07/12 11:24:48;;;;;;;17.90;17.20;;;27.30;99.90;;;;;;4933451;29;20545;-86
2023/07/12 11:27:40;;;;;;;18.13;17.33;;;27.30;99.90;;;;;;4950138;28;20481;-89
2023/07/12 11:30:16;;;;;;;19.10;18.00;;;27.20;99.90;;;;;;4937164;29;20504;-86
2023/07/12 11:35:44;;;;;;;18.40;17.50;;;27.30;99.90;;;;;;4932700;29;20880;-88
2023/07/12 11:38:17;;;;;;;18.43;17.73;;;27.40;99.90;;;;;;4927032;29;20489;-83
2023/07/12 11:40:49;;;;;;;18.70;18.00;;;27.40;99.90;;;;;;4918779;29;20463;-82
2023/07/12 11:43:36;;;;;;;19.67;18.67;;;27.40;99.90;;;;;;4924015;29;20471;-81
2023/07/12 11:46:33;;;;;;;17.80;16.90;;;27.40;99.90;;;;;;4931955;29;21260;-86
2023/07/12 11:49:14;;;;;;;18.70;17.70;;;27.40;99.90;;;;;;4927945;29;20485;-85
2023/07/12 11:51:57;;;;;;;17.90;17.10;;;27.50;99.90;;;;;;4934311;29;20488;-89
2023/07/12 11:54:28;;;;;;;17.80;17.10;;;27.50;99.90;;;;;;4933399;29;20523;-88
2023/07/12 11:57:15;;;;;;;17.10;16.40;;;27.60;99.90;;;;;;4937047;29;20465;-88
2023/07/12 11:59:49;;;;;;;17.47;16.47;;;27.70;99.90;;;;;;4933382;29;20789;-88
2023/07/12 12:02:29;;;;;;;17.77;16.87;;;27.60;99.90;;;;;;4936489;29;21069;-86
2023/07/12 12:05:07;;;;;;;17.50;16.70;;;27.50;99.90;;;;;;4936407;29;20564;-89
2023/07/12 12:07:40;;;;;;;16.80;16.13;;;27.50;99.90;;;;;;4929828;29;20516;-87
2023/07/12 12:10:19;;;;;;;17.53;16.83;;;27.50;99.90;;;;;;4933272;29;20457;-88
2023/07/12 12:12:49;;;;;;;17.70;17.00;;;27.50;99.90;;;;;;4923116;29;20481;-85
2023/07/12 12:15:20;;;;;;;17.07;16.37;;;27.60;99.90;;;;;;4925443;29;21048;-87
2023/07/12 12:17:51;;;;;;;17.70;16.90;;;27.60;99.90;;;;;;4926977;29;20468;-90
2023/07/12 12:20:29;;;;;;;18.20;17.57;;;27.70;99.90;;;;;;4930530;29;20854;-87
2023/07/12 12:23:06;;;;;;;17.83;17.03;;;27.80;99.90;;;;;;4924019;29;20477;-87
2023/07/12 12:25:44;;;;;;;17.17;16.47;;;27.90;99.90;;;;;;4921688;29;20464;-87
2023/07/12 12:28:25;;;;;;;17.80;17.10;;;27.80;99.90;;;;;;4924727;29;20491;-88
2023/07/12 12:31:02;;;;;;;16.70;16.10;;;27.80;99.90;;;;;;4923760;29;20931;-88
2023/07/12 12:33:30;;;;;;;17.10;16.50;;;27.80;99.90;;;;;;4926832;29;20452;-87
2023/07/12 12:36:03;;;;;;;17.60;16.60;;;27.90;99.90;;;;;;4922402;29;20462;-87
2023/07/12 12:38:42;;;;;;;16.90;16.20;;;27.90;99.90;;;;;;4935049;28;20471;-87
2023/07/12 12:41:19;;;;;;;17.50;16.83;;;27.90;99.90;;;;;;4924737;29;20920;-86
2023/07/12 12:43:58;;;;;;;16.97;16.40;;;28.00;99.90;;;;;;4926021;29;20473;-86
2023/07/12 12:46:28;;;;;;;17.63;16.73;;;28.10;99.90;;;;;;4922328;29;20476;-88
2023/07/12 12:49:20;;;;;;;16.50;15.90;;;28.10;99.90;;;;;;4924591;29;20481;-86
2023/07/12 12:55:30;;;;;;;17.60;16.63;;;28.00;99.90;;;;;;4911037;29;20465;-86
2023/07/12 12:58:18;;;;;;;16.73;16.03;;;28.00;99.90;;;;;;4924320;29;21005;-87
2023/07/12 13:01:39;;;;;;;17.37;16.77;;;27.90;99.90;;;;;;4925462;29;20461;-87
2023/07/12 13:04:12;;;;;;;17.40;16.50;;;28.00;99.90;;;;;;4922880;29;20460;-89
2023/07/12 13:13:47;;;;;;;15.97;15.17;;;28.00;99.90;;;;;;5664492;23;21012;-87
2023/07/12 13:20:33;;;;;;;15.97;15.17;;;27.90;99.90;;;;;;4897174;29;20454;-89
2023/07/12 13:40:36;;;;;;;16.80;16.00;;;28.00;99.90;;;;;;4871384;29;20445;-87
2023/07/12 13:47:48;;;;;;;16.40;15.60;;;28.00;99.90;;;;;;4890405;29;20539;-86
2023/07/12 13:50:44;;;;;;;15.23;14.73;;;28.00;99.90;;;;;;4888626;29;20467;-86
2023/07/12 13:54:02;;;;;;;16.00;15.13;;;28.10;99.90;;;;;;4891010;29;20478;-86
2023/07/12 13:56:36;;;;;;;15.27;14.77;;;28.10;99.90;;;;;;4942801;28;20583;-88
2023/07/12 13:59:57;;;;;;;15.40;14.87;;;28.00;99.90;;;;;;4947304;28;20452;-85
2023/07/12 14:02:41;;;;;;;17.10;16.27;;;28.10;99.90;;;;;;4959938;23;20882;-86
2023/07/12 14:05:13;;;;;;;16.83;15.97;;;28.00;99.90;;;;;;4984382;28;20450;-84
2023/07/12 14:07:49;;;;;;;16.00;15.50;;;28.00;99.90;;;;;;4987386;28;20516;-86
2023/07/12 14:10:21;;;;;;;16.33;15.63;;;27.90;99.90;;;;;;4988592;28;20573;-83
2023/07/12 14:12:54;;;;;;;16.00;15.40;;;28.00;99.90;;;;;;4964767;28;20582;-85
2023/07/12 14:15:24;;;;;;;15.00;14.30;;;28.10;99.90;;;;;;4975467;28;20466;-85
2023/07/12 14:17:52;;;;;;;15.40;14.80;;;28.10;99.90;;;;;;4963603;28;20518;-85
2023/07/12 14:20:23;;;;;;;15.03;14.53;;;28.10;99.90;;;;;;4963179;28;21000;-87
2023/07/12 14:22:53;;;;;;;14.73;14.03;;;28.00;99.90;;;;;;4961495;28;20843;-86
2023/07/12 14:25:24;;;;;;;14.40;13.90;;;28.00;99.90;;;;;;4963008;28;20467;-85
2023/07/12 14:27:52;;;;;;;15.63;15.03;;;28.00;99.90;;;;;;4967947;28;20465;-86
2023/07/12 14:30:20;;;;;;;15.50;14.77;;;28.00;99.90;;;;;;4963328;28;20475;-86
2023/07/12 14:32:51;;;;;;;14.97;14.47;;;28.00;99.90;;;;;;4966187;28;20494;-85
2023/07/12 14:35:23;;;;;;;14.77;14.17;;;28.00;99.90;;;;;;4961936;28;20499;-87
2023/07/12 14:37:54;;;;;;;14.73;14.20;;;28.10;99.90;;;;;;4965969;28;20447;-86
2023/07/12 14:40:26;;;;;;;14.90;14.27;;;28.10;99.90;;;;;;4958020;28;20455;-86
2023/07/12 14:42:54;;;;;;;15.17;14.67;;;28.10;99.90;;;;;;4965393;28;20557;-86